Time;durP1;ratioP1;P1;durP2;ratioP2;P2;SDS_P1;SDS_P2;PMS_P1;PMS_P2;Temp;Humidity;BMP_temperature;BMP_pressure;BME280_temperature;BME280_humidity;BME280_pressure;Samples;Min_cycle;Max_cycle;Signal;HPM_P1;HPM_P2
2022/02/06 00:00:24;;;;;;;0.60;0.60;;;;;;;1.44;70.89;97450.75;29375;262;63005;-59
2022/02/06 00:01:02;;;;;;;0.60;0.60;;;;;;;1.42;71.11;97444.81;29373;327;64013;-59
2022/02/06 00:01:40;;;;;;;0.60;0.60;;;;;;;1.46;71.11;97437.16;29373;325;64009;-60
2022/02/06 00:02:18;;;;;;;0.70;0.70;;;;;;;1.43;70.87;97443.75;29375;251;63009;-59
2022/02/06 00:03:13;;;;;;;0.70;0.70;;;;;;;1.41;71.19;97439.69;29375;250;63004;-59
2022/02/06 00:03:46;;;;;;;0.60;0.60;;;;;;;1.39;71.17;97441.78;29373;256;64013;-59
2022/02/06 00:04:17;;;;;;;0.60;0.60;;;;;;;1.34;71.73;97445.94;29375;327;63004;-58
2022/02/06 00:04:49;;;;;;;0.60;0.60;;;;;;;1.32;71.91;97431.97;29375;197;63009;-60
2022/02/06 00:05:30;;;;;;;0.60;0.60;;;;;;;1.34;71.77;97432.56;29375;226;63005;-59
2022/02/06 00:06:09;;;;;;;0.60;0.60;;;;;;;1.34;71.50;97429.91;29373;352;64013;-59
2022/02/06 00:06:44;;;;;;;0.60;0.60;;;;;;;1.35;71.57;97430.72;29374;273;64005;-59
2022/02/06 00:07:21;;;;;;;0.70;0.70;;;;;;;1.36;71.87;97436.88;29375;335;63009;-58
2022/02/06 00:08:07;;;;;;;0.60;0.60;;;;;;;1.34;71.54;97435.25;29375;234;63005;-60
2022/02/06 00:08:43;;;;;;;0.60;0.60;;;;;;;1.33;71.77;97428.25;29375;305;63023;-61
2022/02/06 00:09:26;;;;;;;0.70;0.70;;;;;;;1.36;71.93;97431.53;29373;200;64009;-57
2022/02/06 00:10:01;;;;;;;0.60;0.60;;;;;;;1.37;71.99;97433.16;29375;206;63009;-61
2022/02/06 00:10:33;;;;;;;0.60;0.60;;;;;;;1.38;71.96;97429.44;29373;328;64009;-60
2022/02/06 00:11:07;;;;;;;0.60;0.60;;;;;;;1.43;71.71;97422.38;29375;264;63008;-60
2022/02/06 00:11:39;;;;;;;0.60;0.60;;;;;;;1.46;71.33;97426.47;29375;206;63004;-59
2022/02/06 00:12:30;;;;;;;;;;;;;;;;;;;;;
2022/02/06 00:13:12;;;;;;;0.60;0.60;;;;;;;1.53;70.79;97427.22;29375;331;63005;-58
2022/02/06 00:13:48;;;;;;;0.60;0.60;;;;;;;1.52;71.09;97425.59;29375;196;63015;-58
2022/02/06 00:14:20;;;;;;;0.60;0.60;;;;;;;1.46;71.18;97421.12;29375;257;63005;-59
2022/02/06 00:14:54;;;;;;;0.60;0.60;;;;;;;1.43;71.37;97424.22;29375;358;63005;-58
2022/02/06 00:15:29;;;;;;;0.60;0.60;;;;;;;1.40;71.19;97422.81;29375;273;63005;-58
2022/02/06 00:16:11;;;;;;;0.60;0.60;;;;;;;1.48;71.17;97416.38;29373;196;64013;-59
2022/02/06 00:16:42;;;;;;;0.60;0.60;;;;;;;1.47;71.23;97412.06;29373;225;64009;-59
2022/02/06 00:17:13;;;;;;;0.60;0.60;;;;;;;1.45;71.28;97414.94;29373;240;63013;-59
2022/02/06 00:17:46;;;;;;;0.60;0.60;;;;;;;1.47;71.12;97417.41;29373;210;63004;-59
2022/02/06 00:18:21;;;;;;;0.60;0.60;;;;;;;1.49;71.28;97420.69;29373;196;63009;-58
2022/02/06 00:18:57;;;;;;;0.60;0.60;;;;;;;1.43;71.32;97416.22;29373;314;63004;-57
2022/02/06 00:19:29;;;;;;;0.60;0.60;;;;;;;1.34;71.30;97408.50;29373;247;63009;-59
2022/02/06 00:20:02;;;;;;;0.60;0.60;;;;;;;1.37;71.47;97417.94;29373;285;63005;-58
2022/02/06 00:20:46;;;;;;;0.60;0.60;;;;;;;1.37;71.86;97414.44;29373;269;63009;-58
2022/02/06 00:21:21;;;;;;;0.60;0.60;;;;;;;1.38;71.87;97408.06;29373;202;63005;-59
2022/02/06 00:22:03;;;;;;;0.60;0.60;;;;;;;1.34;71.78;97403.16;29371;258;64013;-59
2022/02/06 00:22:42;;;;;;;0.60;0.60;;;;;;;1.41;71.64;97407.59;29373;263;63005;-59
2022/02/06 00:23:25;;;;;;;0.60;0.60;;;;;;;1.46;71.53;97407.75;29373;274;63009;-58
2022/02/06 00:24:04;;;;;;;0.60;0.60;;;;;;;1.49;70.88;97401.97;29373;275;63004;-58
2022/02/06 00:24:50;;;;;;;;;;;;;;;1.44;71.01;97397.28;29974;983;28000;-59
2022/02/06 00:25:43;;;;;;;0.60;0.60;;;;;;;1.42;71.39;97403.88;29422;330;63021;-58
2022/02/06 00:26:30;;;;;;;0.60;0.60;;;;;;;1.37;71.64;97401.09;29395;201;63004;-59
2022/02/06 00:27:26;;;;;;;0.60;0.60;;;;;;;1.43;71.50;97400.16;29371;257;64014;-60
2022/02/06 00:28:16;;;;;;;0.60;0.60;;;;;;;1.40;71.33;97392.59;29371;300;64009;-59
2022/02/06 00:29:57;;;;;;;0.60;0.60;;;;;;;1.29;72.56;97399.50;29373;252;63005;-59
2022/02/06 00:31:46;;;;;;;0.60;0.60;;;;;;;1.32;72.41;97393.72;29371;245;64009;-58
2022/02/06 00:32:40;;;;;;;0.60;0.60;;;;;;;1.34;72.07;97391.63;29373;228;63009;-55
2022/02/06 00:33:24;;;;;;;0.60;0.60;;;;;;;1.38;71.96;97400.03;29373;202;63004;-59
2022/02/06 00:34:31;;;;;;;0.55;0.55;;;;;;;1.37;72.33;97398.41;29373;303;63026;-59
2022/02/06 00:39:20;;;;;;;0.60;0.60;;;;;;;1.38;72.15;97397.38;29373;234;63009;-60
2022/02/06 00:40:08;;;;;;;0.60;0.60;;;;;;;1.36;72.56;97394.09;29373;261;63011;-58
2022/02/06 00:41:11;;;;;;;0.60;0.60;;;;;;;1.41;72.11;97396.91;29373;300;63008;-59
2022/02/06 00:41:38;;;;;;;0.60;0.60;;;;;;;1.41;72.31;97391.53;29371;209;64009;-57
2022/02/06 00:42:10;;;;;;;0.60;0.60;;;;;;;1.42;72.05;97393.19;29373;199;63009;-59
2022/02/06 00:42:44;;;;;;;0.60;0.60;;;;;;;1.41;72.47;97391.53;29373;222;63005;-59
2022/02/06 00:43:18;;;;;;;0.60;0.60;;;;;;;1.39;72.83;97394.44;29373;216;63009;-58
2022/02/06 00:43:53;;;;;;;0.60;0.60;;;;;;;1.34;73.20;97392.47;29373;241;63010;-58
2022/02/06 00:44:27;;;;;;;0.60;0.60;;;;;;;1.33;73.02;97380.13;29373;299;63009;-58
2022/02/06 00:45:02;;;;;;;0.60;0.60;;;;;;;1.32;73.18;97388.38;29373;339;63005;-60
2022/02/06 00:45:36;;;;;;;0.60;0.60;;;;;;;1.32;72.82;97389.19;29373;256;63009;-59
2022/02/06 00:46:12;;;;;;;0.60;0.60;;;;;;;1.36;73.06;97388.75;29373;351;63004;-58
2022/02/06 00:46:49;;;;;;;0.60;0.60;;;;;;;1.31;73.13;97384.06;29393;241;64013;-58
2022/02/06 00:47:20;;;;;;;0.52;0.52;;;;;;;1.34;73.26;97392.47;29395;215;63006;-54
2022/02/06 00:47:52;;;;;;;0.60;0.60;;;;;;;1.39;72.94;97393.66;29373;271;63021;-57
2022/02/06 00:48:28;;;;;;;0.60;0.60;;;;;;;1.40;72.93;97381.88;29373;353;63004;-59
2022/02/06 00:49:11;;;;;;;0.60;0.60;;;;;;;1.41;72.84;97386.19;29371;269;64014;-58
2022/02/06 00:49:45;;;;;;;0.60;0.60;;;;;;;1.44;72.79;97386.56;29373;213;63005;-58
2022/02/06 00:50:19;;;;;;;0.60;0.60;;;;;;;1.50;72.54;97384.88;29373;310;63009;-59
2022/02/06 00:51:01;;;;;;;0.60;0.60;;;;;;;1.49;72.46;97388.59;29373;290;63005;-60
2022/02/06 00:51:47;;;;;;;0.60;0.60;;;;;;;1.48;72.39;97387.78;29373;307;63009;-60
2022/02/06 00:52:26;;;;;;;0.60;0.60;;;;;;;1.45;72.43;97380.19;29371;213;64000;-58
2022/02/06 00:53:04;;;;;;;0.60;0.60;;;;;;;1.45;72.53;97387.41;29373;276;63009;-58
2022/02/06 00:53:38;;;;;;;0.60;0.60;;;;;;;1.43;72.66;97378.78;29373;199;63004;-56
2022/02/06 00:54:09;;;;;;;0.60;0.60;;;;;;;1.44;72.97;97380.41;29371;244;64013;-58
2022/02/06 00:54:40;;;;;;;0.60;0.60;;;;;;;1.50;72.86;97382.19;29371;215;64009;-59
2022/02/06 00:55:12;;;;;;;0.60;0.60;;;;;;;1.52;72.30;97380.13;29373;208;63009;-58
2022/02/06 00:55:46;;;;;;;0.60;0.60;;;;;;;1.54;72.51;97386.06;29373;315;63004;-58
2022/02/06 00:56:18;;;;;;;0.60;0.60;;;;;;;1.54;72.28;97386.06;29373;217;63008;-58
2022/02/06 00:56:49;;;;;;;0.60;0.60;;;;;;;1.52;72.70;97382.78;29373;307;63005;-58
2022/02/06 00:57:24;;;;;;;0.60;0.60;;;;;;;1.49;72.66;97378.69;29371;309;64014;-59
2022/02/06 00:57:55;;;;;;;0.60;0.60;;;;;;;1.48;72.37;97381.59;29373;218;63005;-59
2022/02/06 00:58:31;;;;;;;0.60;0.60;;;;;;;1.44;72.50;97381.22;29373;216;63009;-59
2022/02/06 00:59:06;;;;;;;0.60;0.60;;;;;;;1.44;72.78;97380.41;29374;202;63005;-59
2022/02/06 00:59:38;;;;;;;0.60;0.60;;;;;;;1.43;72.73;97376.09;29372;308;63009;-58
2022/02/06 01:00:11;;;;;;;0.60;0.60;;;;;;;1.42;72.70;97366.44;29371;230;64001;-58
2022/02/06 01:00:42;;;;;;;0.60;0.60;;;;;;;1.42;72.68;97371.78;29373;218;63009;-59
2022/02/06 01:01:14;;;;;;;0.60;0.60;;;;;;;1.44;73.15;97367.84;29373;229;63004;-58
2022/02/06 01:01:45;;;;;;;0.60;0.60;;;;;;;1.48;72.86;97365.56;29373;361;63009;-57
2022/02/06 01:02:16;;;;;;;0.60;0.60;;;;;;;1.48;73.02;97366.38;29373;199;63004;-59
2022/02/06 01:02:50;;;;;;;0.60;0.60;;;;;;;1.50;72.88;97368.81;29373;314;63009;-56
2022/02/06 01:03:24;;;;;;;0.60;0.60;;;;;;;1.56;72.62;97360.72;29373;203;63004;-59
2022/02/06 01:03:55;;;;;;;0.60;0.60;;;;;;;1.57;72.35;97366.91;29373;266;63009;-59
2022/02/06 01:04:28;;;;;;;0.60;0.60;;;;;;;1.56;72.31;97363.41;29373;274;63009;-57
2022/02/06 01:05:05;;;;;;;0.60;0.60;;;;;;;1.58;72.28;97352.47;29371;249;64014;-59
2022/02/06 01:05:37;;;;;;;0.60;0.60;;;;;;;1.58;72.21;97365.84;29373;213;63005;-59
2022/02/06 01:06:10;;;;;;;0.60;0.60;;;;;;;1.57;72.42;97364.22;29371;354;64013;-59
2022/02/06 01:06:42;;;;;;;0.60;0.60;;;;;;;1.56;72.18;97359.91;29373;248;63005;-59
2022/02/06 01:07:13;;;;;;;0.50;0.50;;;;;;;1.55;72.37;97361.78;29373;199;63009;-58
2022/02/06 01:07:44;;;;;;;0.60;0.60;;;;;;;1.59;72.21;97359.47;29373;208;63005;-59
2022/02/06 01:08:17;;;;;;;0.60;0.60;;;;;;;1.58;72.20;97355.97;29373;313;63009;-59
2022/02/06 01:08:49;;;;;;;0.60;0.60;;;;;;;1.58;72.36;97363.19;29373;297;63004;-58
2022/02/06 01:09:23;;;;;;;0.60;0.60;;;;;;;1.58;72.13;97353.31;29373;263;63009;-59
2022/02/06 01:09:55;;;;;;;0.60;0.60;;;;;;;1.58;72.29;97357.84;29373;344;63004;-57
2022/02/06 01:10:27;;;;;;;0.60;0.60;;;;;;;1.60;72.44;97355.75;29373;197;63009;-59
2022/02/06 01:11:04;;;;;;;0.60;0.60;;;;;;;1.64;71.87;97364.97;29373;199;63004;-58
2022/02/06 01:11:39;;;;;;;0.60;0.60;;;;;;;1.63;72.04;97356.13;29371;348;64014;-60
2022/02/06 01:12:14;;;;;;;0.60;0.60;;;;;;;1.62;72.13;97357.16;29373;248;63005;-59
2022/02/06 01:12:56;;;;;;;0.60;0.60;;;;;;;1.60;72.15;97358.44;29373;268;63009;-59
2022/02/06 01:13:37;;;;;;;0.60;0.60;;;;;;;1.62;72.13;97351.81;29395;206;63005;-59
2022/02/06 01:14:37;;;;;;;0.60;0.60;;;;;;;1.62;71.90;97356.34;29417;239;63017;-58
2022/02/06 01:15:21;;;;;;;0.60;0.60;;;;;;;1.68;71.42;97353.59;29395;203;63005;-58
2022/02/06 01:16:01;;;;;;;0.60;0.60;;;;;;;1.71;71.43;97349.66;29395;277;63009;-58
2022/02/06 01:16:43;;;;;;;0.60;0.60;;;;;;;1.71;71.70;97352.31;29395;324;63004;-58
2022/02/06 01:17:37;;;;;;;0.60;0.60;;;;;;;1.72;71.70;97356.63;29371;318;64013;-58
2022/02/06 01:18:17;;;;;;;0.60;0.60;;;;;;;1.71;71.42;97344.31;29373;219;63004;-58
2022/02/06 01:19:07;;;;;;;0.60;0.60;;;;;;;1.79;71.30;97345.81;29373;329;63008;-57
2022/02/06 01:19:51;;;;;;;0.60;0.60;;;;;;;1.75;71.59;97350.81;29373;259;63005;-59
2022/02/06 01:20:32;;;;;;;0.60;0.60;;;;;;;1.73;71.38;97347.56;29373;341;63009;-58
2022/02/06 01:21:23;;;;;;;0.60;0.60;;;;;;;1.77;71.17;97343.38;29373;198;63005;-59
2022/02/06 01:22:06;;;;;;;0.60;0.60;;;;;;;1.81;71.20;97339.22;29371;218;64013;-60
2022/02/06 01:22:47;;;;;;;0.60;0.60;;;;;;;1.85;71.00;97343.06;29373;212;63005;-59
2022/02/06 01:23:28;;;;;;;0.60;0.60;;;;;;;1.80;70.88;97342.09;29395;242;63009;-59
2022/02/06 01:24:08;;;;;;;0.60;0.60;;;;;;;1.78;71.45;97339.66;29417;197;63004;-59
2022/02/06 01:24:57;;;;;;;0.60;0.60;;;;;;;1.76;71.22;97341.75;29395;273;63009;-59
2022/02/06 01:25:39;;;;;;;0.60;0.60;;;;;;;1.73;71.23;97341.41;29371;232;64009;-58
2022/02/06 01:26:22;;;;;;;0.60;0.60;;;;;;;1.78;71.50;97345.00;29373;323;63008;-58
2022/02/06 01:27:00;;;;;;;0.60;0.60;;;;;;;1.80;71.59;97352.81;29373;341;63005;-57
2022/02/06 01:27:42;;;;;;;0.60;0.60;;;;;;;1.77;71.67;97343.38;29371;224;64014;-60
2022/02/06 01:28:17;;;;;;;0.70;0.70;;;;;;;1.75;71.97;97345.47;29373;197;63005;-59
2022/02/06 01:28:54;;;;;;;0.60;0.60;;;;;;;1.75;71.84;97344.62;29373;212;63009;-60
2022/02/06 01:29:40;;;;;;;0.60;0.60;;;;;;;1.73;71.98;97342.22;29373;216;63005;-58
2022/02/06 01:30:19;;;;;;;0.60;0.60;;;;;;;1.81;71.99;97344.56;29371;342;64013;-59
2022/02/06 01:31:26;;;;;;;0.60;0.60;;;;;;;1.81;71.67;97343.75;29373;273;63004;-59
2022/02/06 01:32:09;;;;;;;0.60;0.60;;;;;;;1.79;71.43;97346.66;29373;295;63020;-58
2022/02/06 01:33:05;;;;;;;0.60;0.60;;;;;;;1.78;71.49;97345.00;29373;307;63004;-58
2022/02/06 01:33:46;;;;;;;0.60;0.60;;;;;;;1.76;71.79;97341.75;29371;365;64013;-58
2022/02/06 01:34:26;;;;;;;0.60;0.60;;;;;;;1.76;71.75;97344.41;29373;200;63005;-59
2022/02/06 01:35:06;;;;;;;0.60;0.60;;;;;;;1.78;71.88;97350.38;29395;362;63009;-59
2022/02/06 01:35:48;;;;;;;0.60;0.60;;;;;;;1.77;72.14;97346.06;29395;261;63005;-58
2022/02/06 01:36:28;;;;;;;0.60;0.60;;;;;;;1.77;71.66;97343.38;29373;219;63009;-57
2022/02/06 01:38:09;;;;;;;0.60;0.60;;;;;;;1.75;71.99;97339.28;29373;321;63009;-59
2022/02/06 01:39:10;;;;;;;0.60;0.60;;;;;;;1.77;71.67;97348.72;29371;278;64009;-58
2022/02/06 01:40:54;;;;;;;0.60;0.60;;;;;;;1.75;71.79;97345.47;29373;379;63004;-58
2022/02/06 01:41:31;;;;;;;0.60;0.60;;;;;;;1.82;71.45;97345.38;29373;421;63008;-58
2022/02/06 01:42:05;;;;;;;0.60;0.60;;;;;;;1.80;71.74;97340.25;29373;264;63005;-58
2022/02/06 01:42:53;;;;;;;0.60;0.60;;;;;;;1.77;71.78;97343.38;29373;218;63009;-58
2022/02/06 01:43:54;;;;;;;0.60;0.60;;;;;;;1.76;71.69;97344.41;29373;265;63005;-57
2022/02/06 01:45:31;;;;;;;0.60;0.60;;;;;;;1.70;72.03;97345.34;29373;270;63004;-59
2022/02/06 01:46:23;;;;;;;0.60;0.60;;;;;;;1.69;72.17;97346.38;29373;211;63009;-58
2022/02/06 02:02:00;;;;;;;0.60;0.60;;;;;;;1.69;72.42;97351.75;29395;203;63009;-58
2022/02/06 02:02:48;;;;;;;;;;;;;;;1.72;72.57;97351.28;29996;986;6004;-59
2022/02/06 02:03:31;;;;;;;0.60;0.60;;;;;;;1.71;72.36;97338.97;29400;260;63000;-60
2022/02/06 02:06:48;;;;;;;0.60;0.60;;;;;;;1.75;72.33;97340.09;29373;208;63009;-59
2022/02/06 02:08:39;;;;;;;0.60;0.60;;;;;;;1.74;71.83;97340.34;29371;224;64013;-59
2022/02/06 02:12:24;;;;;;;0.60;0.60;;;;;;;1.71;72.43;97330.94;29393;263;64014;-58
2022/02/06 02:15:20;;;;;;;0.60;0.60;;;;;;;1.74;72.13;97317.06;29373;252;63005;-59
2022/02/06 02:18:48;;;;;;;0.60;0.60;;;;;;;1.79;71.42;97319.88;29373;221;63004;-59
2022/02/06 02:19:35;;;;;;;0.60;0.60;;;;;;;1.86;71.36;97319.81;29371;270;64014;-58
2022/02/06 02:24:25;;;;;;;0.60;0.60;;;;;;;1.94;71.17;97290.06;29371;285;64009;-59
2022/02/06 02:27:59;;;;;;;1.05;1.05;;;;;;;1.87;71.11;97279.44;29373;229;63005;-58
2022/02/06 02:42:52;;;;;;;0.60;0.60;;;;;;;1.99;70.65;97256.22;29373;309;63004;-60
2022/02/06 02:43:19;;;;;;;0.60;0.60;;;;;;;1.84;71.25;97261.16;29371;332;64009;-59
2022/02/06 02:45:10;;;;;;;0.60;0.60;;;;;;;1.99;70.40;97261.56;29395;361;63009;-60
2022/02/06 02:46:02;;;;;;;0.60;0.60;;;;;;;1.92;71.08;97260.03;29395;218;63004;-59
2022/02/06 02:46:41;;;;;;;0.60;0.60;;;;;;;1.84;71.06;97255.00;29395;324;63009;-60
2022/02/06 02:47:18;;;;;;;0.60;0.60;;;;;;;1.87;70.99;97252.69;29395;230;63000;-58
2022/02/06 02:47:53;;;;;;;0.60;0.60;;;;;;;1.85;71.31;97253.94;29371;212;64013;-59
2022/02/06 02:48:24;;;;;;;0.60;0.60;;;;;;;1.93;70.72;97251.78;29373;212;63004;-57
2022/02/06 02:48:57;;;;;;;0.60;0.60;;;;;;;1.94;71.04;97255.25;29373;232;63009;-59
2022/02/06 02:49:31;;;;;;;0.60;0.60;;;;;;;1.90;70.84;97252.22;29373;296;63005;-59
2022/02/06 02:50:10;;;;;;;0.60;0.60;;;;;;;1.96;70.94;97251.31;29373;310;63009;-59
2022/02/06 02:50:46;;;;;;;0.60;0.60;;;;;;;1.96;70.62;97245.97;29373;266;63005;-59
2022/02/06 02:51:20;;;;;;;0.60;0.60;;;;;;;1.90;70.78;97241.53;29373;213;63009;-60
2022/02/06 02:51:58;;;;;;;0.60;0.60;;;;;;;1.89;70.89;97242.56;29373;281;63005;-59
2022/02/06 02:53:50;;;;;;;0.60;0.60;;;;;;;1.80;71.26;97235.91;29373;271;63004;-58
2022/02/06 02:54:25;;;;;;;0.70;0.70;;;;;;;1.78;71.77;97237.19;29373;219;63009;-58
2022/02/06 02:55:14;;;;;;;0.60;0.60;;;;;;;1.80;71.64;97237.75;29373;257;63004;-59
2022/02/06 02:56:46;;;;;;;0.60;0.60;;;;;;;1.81;71.62;97234.03;29372;363;63005;-58
2022/02/06 02:57:25;;;;;;;0.60;0.60;;;;;;;1.81;71.20;97226.03;29371;222;64013;-60
2022/02/06 02:58:17;;;;;;;0.60;0.60;;;;;;;1.91;70.96;97221.75;29373;344;63005;-60
2022/02/06 02:59:06;;;;;;;;;;;;;;;1.89;71.05;97229.19;29974;982;28000;-57
2022/02/06 02:59:55;;;;;;;0.60;0.60;;;;;;;1.90;71.18;97225.47;29400;264;63004;-58
2022/02/06 03:00:36;;;;;;;0.60;0.60;;;;;;;1.88;71.06;97221.38;29373;206;63004;-57
2022/02/06 03:02:05;;;;;;;0.60;0.60;;;;;;;1.78;71.86;97221.94;29395;220;63004;-61
2022/02/06 03:02:37;;;;;;;0.60;0.60;;;;;;;1.75;71.72;97206.34;29371;250;64013;-60
2022/02/06 03:03:21;;;;;;;0.60;0.60;;;;;;;1.79;71.80;97212.88;29373;249;63005;-60
2022/02/06 03:04:05;;;;;;;0.60;0.60;;;;;;;1.82;71.43;97217.75;29373;358;63009;-59
2022/02/06 03:04:44;;;;;;;0.60;0.60;;;;;;;1.81;71.77;97212.63;29373;259;63005;-59
2022/02/06 03:05:15;;;;;;;0.60;0.60;;;;;;;1.82;71.46;97212.41;29373;214;63009;-58
2022/02/06 03:05:49;;;;;;;0.60;0.60;;;;;;;1.79;71.85;97215.53;29373;197;63005;-57
2022/02/06 03:06:21;;;;;;;0.60;0.60;;;;;;;1.78;71.78;97211.25;29373;308;63009;-58
2022/02/06 03:06:52;;;;;;;0.60;0.60;;;;;;;1.76;71.53;97210.66;29372;283;64009;-56
2022/02/06 03:07:27;;;;;;;0.60;0.60;;;;;;;1.78;71.73;97202.41;29373;218;63009;-60
2022/02/06 03:08:03;;;;;;;0.60;0.60;;;;;;;1.80;71.58;97206.47;29373;330;63004;-58
2022/02/06 03:08:38;;;;;;;0.62;0.62;;;;;;;1.77;71.63;97198.09;29373;213;63014;-59
2022/02/06 03:09:09;;;;;;;0.60;0.60;;;;;;;1.75;71.87;97195.66;29373;268;63004;-59
2022/02/06 03:09:43;;;;;;;0.60;0.60;;;;;;;1.76;71.69;97199.94;29373;237;63009;-58
2022/02/06 03:10:14;;;;;;;0.60;0.60;;;;;;;1.79;71.81;97196.00;29373;375;63004;-59
2022/02/06 03:10:47;;;;;;;0.60;0.60;;;;;;;1.81;71.78;97194.72;29373;212;63009;-59
2022/02/06 03:11:19;;;;;;;0.60;0.60;;;;;;;1.80;71.86;97192.28;29373;199;63005;-58
2022/02/06 03:11:50;;;;;;;0.60;0.60;;;;;;;1.77;71.89;97190.06;29371;256;64014;-58
2022/02/06 03:12:26;;;;;;;0.60;0.60;;;;;;;1.74;71.86;97191.34;29373;254;63010;-57
2022/02/06 03:13:05;;;;;;;0.60;0.60;;;;;;;1.72;72.30;97196.13;29373;317;63009;-58
2022/02/06 03:13:50;;;;;;;0.60;0.60;;;;;;;1.72;72.27;97190.78;29373;258;63005;-59
2022/02/06 03:14:37;;;;;;;0.60;0.60;;;;;;;1.82;71.76;97192.88;29373;202;63009;-58
2022/02/06 03:15:21;;;;;;;0.60;0.60;;;;;;;1.87;71.37;97193.00;29371;335;64009;-59
2022/02/06 03:17:00;;;;;;;0.60;0.60;;;;;;;1.87;71.32;97191.13;29373;306;63004;-57
2022/02/06 03:17:38;;;;;;;0.60;0.60;;;;;;;1.87;71.94;97183.13;29373;233;63015;-58
2022/02/06 03:18:18;;;;;;;0.60;0.60;;;;;;;1.86;71.95;97176.13;29373;198;63005;-59
2022/02/06 03:19:55;;;;;;;0.60;0.60;;;;;;;1.93;71.50;97168.81;29371;216;64009;-59
2022/02/06 03:20:28;;;;;;;0.60;0.60;;;;;;;1.94;71.41;97170.44;29373;350;63009;-58
2022/02/06 03:21:01;;;;;;;0.50;0.50;;;;;;;1.92;71.59;97169.03;29373;291;63005;-56
2022/02/06 03:21:34;;;;;;;0.60;0.60;;;;;;;1.93;71.83;97165.31;29373;197;63009;-58
2022/02/06 03:22:07;;;;;;;0.50;0.50;;;;;;;1.91;71.89;97162.06;29371;259;64009;-57
2022/02/06 03:22:50;;;;;;;0.60;0.60;;;;;;;1.91;71.55;97165.56;29371;323;64013;-57
2022/02/06 03:23:23;;;;;;;0.60;0.60;;;;;;;1.88;71.97;97163.34;29373;227;63004;-57
2022/02/06 03:24:06;;;;;;;0.60;0.60;;;;;;;1.84;72.19;97162.16;29371;197;64013;-59
2022/02/06 03:24:42;;;;;;;0.60;0.60;;;;;;;1.81;71.98;97157.28;29373;296;63004;-58
2022/02/06 03:25:19;;;;;;;0.60;0.60;;;;;;;1.85;72.02;97163.78;29371;246;64013;-58
2022/02/06 03:25:54;;;;;;;0.60;0.60;;;;;;;1.92;71.42;97163.69;29371;235;64009;-58
2022/02/06 03:26:26;;;;;;;0.60;0.60;;;;;;;1.95;71.63;97164.03;29373;264;63009;-58
2022/02/06 03:26:59;;;;;;;0.60;0.60;;;;;;;1.98;71.61;97166.25;29373;281;63014;-58
2022/02/06 03:27:30;;;;;;;0.60;0.60;;;;;;;1.94;71.51;97162.41;29373;215;63015;-59
2022/02/06 03:28:02;;;;;;;0.60;0.60;;;;;;;1.94;71.72;97156.25;29373;216;63005;-58
2022/02/06 03:28:34;;;;;;;0.60;0.60;;;;;;;1.95;71.23;97164.03;29373;253;63009;-59
2022/02/06 03:29:05;;;;;;;0.60;0.60;;;;;;;1.97;71.48;97150.44;29373;218;63005;-58
2022/02/06 03:29:40;;;;;;;0.50;0.50;;;;;;;1.94;71.50;97162.41;29373;199;63009;-58
2022/02/06 03:30:15;;;;;;;0.50;0.50;;;;;;;1.93;71.74;97159.97;29373;258;63004;-59
2022/02/06 03:30:47;;;;;;;0.50;0.50;;;;;;;1.93;71.60;97163.47;29371;313;64013;-58
2022/02/06 03:31:18;;;;;;;0.60;0.60;;;;;;;1.99;71.60;97151.84;29373;332;63004;-58
2022/02/06 03:31:54;;;;;;;0.60;0.60;;;;;;;2.04;71.46;97151.16;29373;197;63009;-59
2022/02/06 03:32:25;;;;;;;0.57;0.57;;;;;;;2.01;71.73;97156.97;29373;199;63004;-58
2022/02/06 03:32:57;;;;;;;0.60;0.60;;;;;;;1.98;71.81;97158.25;29373;202;63008;-56
2022/02/06 03:33:28;;;;;;;0.60;0.60;;;;;;;1.96;71.79;97154.16;29373;202;63005;-56
2022/02/06 03:34:00;;;;;;;0.60;0.60;;;;;;;1.95;71.64;97153.34;29373;261;63009;-59
2022/02/06 03:34:32;;;;;;;0.50;0.50;;;;;;;1.98;71.57;97152.88;29373;336;63005;-58
2022/02/06 03:35:04;;;;;;;0.52;0.52;;;;;;;1.98;71.77;97158.25;29373;251;63009;-60
2022/02/06 03:35:36;;;;;;;0.60;0.60;;;;;;;1.97;71.98;97159.28;29373;312;63005;-59
2022/02/06 03:36:10;;;;;;;0.50;0.50;;;;;;;2.07;71.36;97156.03;29371;210;64013;-65
2022/02/06 03:36:42;;;;;;;0.60;0.60;;;;;;;2.16;70.93;97153.81;29373;196;63005;-57
2022/02/06 03:37:14;;;;;;;0.50;0.50;;;;;;;2.17;70.64;97161.59;29371;205;64013;-56
2022/02/06 03:37:45;;;;;;;0.52;0.52;;;;;;;2.16;71.02;97159.16;29373;207;63004;-58
2022/02/06 03:38:16;;;;;;;0.50;0.50;;;;;;;2.11;71.31;97161.72;29373;218;63009;-59
2022/02/06 03:38:51;;;;;;;0.60;0.60;;;;;;;2.09;71.29;97153.09;29373;227;63004;-59
2022/02/06 03:39:27;;;;;;;0.60;0.60;;;;;;;2.06;71.43;97161.62;29395;230;63009;-59
2022/02/06 03:40:01;;;;;;;0.60;0.60;;;;;;;2.04;71.71;97166.37;29373;229;63004;-58
2022/02/06 03:40:44;;;;;;;0.60;0.60;;;;;;;2.04;71.80;97171.75;29373;261;63008;-58
2022/02/06 03:41:17;;;;;;;0.50;0.50;;;;;;;2.09;71.84;97167.28;29373;235;63005;-59
2022/02/06 03:42:04;;;;;;;0.50;0.50;;;;;;;2.14;71.27;97166.59;29373;306;63009;-56
2022/02/06 03:42:45;;;;;;;0.50;0.50;;;;;;;2.25;70.74;97163.13;29371;269;64009;-58
2022/02/06 03:43:21;;;;;;;0.50;0.50;;;;;;;2.24;70.60;97167.66;29395;279;63009;-56
2022/02/06 03:44:01;;;;;;;0.50;0.50;;;;;;;2.31;70.38;97172.91;29395;250;63005;-59
2022/02/06 03:44:46;;;;;;;0.60;0.60;;;;;;;2.24;70.69;97166.84;29373;317;63009;-58
2022/02/06 03:45:20;;;;;;;0.60;0.60;;;;;;;2.23;70.81;97165.22;29373;224;63004;-57
2022/02/06 03:47:09;;;;;;;0.60;0.60;;;;;;;2.26;70.39;97173.59;29373;287;63004;-59
2022/02/06 03:47:52;;;;;;;0.60;0.60;;;;;;;2.24;70.58;97162.31;29393;204;64013;-58
2022/02/06 03:48:30;;;;;;;0.60;0.60;;;;;;;2.23;70.90;97170.56;29395;306;63005;-58
2022/02/06 03:49:10;;;;;;;0.50;0.50;;;;;;;2.17;70.98;97172.31;29373;340;63015;-61
2022/02/06 03:50:33;;;;;;;0.50;0.50;;;;;;;2.10;71.40;97166.25;29395;329;63009;-55
2022/02/06 03:51:07;;;;;;;0.60;0.60;;;;;;;2.11;71.76;97165.22;29373;202;63005;-58
2022/02/06 03:51:39;;;;;;;0.52;0.52;;;;;;;2.16;71.22;97169.88;29373;252;63009;-58
2022/02/06 03:52:12;;;;;;;0.60;0.60;;;;;;;2.20;71.17;97165.69;29371;259;64009;-54
2022/02/06 03:52:50;;;;;;;0.60;0.60;;;;;;;2.23;70.84;97167.91;29394;277;64013;-57
2022/02/06 03:53:25;;;;;;;0.57;0.57;;;;;;;2.20;70.94;97171.03;29373;196;63005;-57
2022/02/06 03:53:56;;;;;;;0.50;0.50;;;;;;;2.22;71.22;97171.63;29373;327;63009;-59
2022/02/06 03:54:28;;;;;;;0.60;0.60;;;;;;;2.21;71.31;97172.66;29372;243;63004;-63
2022/02/06 03:54:59;;;;;;;0.60;0.60;;;;;;;2.31;70.45;97178.25;29373;336;63008;-55
2022/02/06 03:55:33;;;;;;;0.80;0.80;;;;;;;2.49;70.02;97162.06;29373;352;63004;-59
2022/02/06 03:56:05;;;;;;;0.60;0.60;;;;;;;2.52;69.83;97164.25;29373;225;63009;-59
2022/02/06 03:56:40;;;;;;;0.60;0.60;;;;;;;2.48;70.14;97167.63;29373;367;63005;-60
2022/02/06 03:57:11;;;;;;;0.60;0.60;;;;;;;2.40;70.15;97166.16;29373;314;63024;-56
2022/02/06 03:57:42;;;;;;;0.60;0.60;;;;;;;2.38;70.48;97170.12;29373;219;63005;-59
2022/02/06 03:58:14;;;;;;;0.60;0.60;;;;;;;2.31;70.75;97168.38;29371;210;64013;-57
2022/02/06 03:58:45;;;;;;;0.60;0.60;;;;;;;2.28;71.03;97162.66;29373;293;63005;-58
2022/02/06 03:59:17;;;;;;;0.60;0.60;;;;;;;2.40;70.11;97160.81;29373;236;63009;-56
2022/02/06 03:59:48;;;;;;;0.60;0.60;;;;;;;2.40;69.91;97160.81;29373;312;63004;-56
2022/02/06 04:00:25;;;;;;;0.60;0.60;;;;;;;2.38;70.18;97162.91;29373;239;63009;-59
2022/02/06 04:00:57;;;;;;;0.60;0.60;;;;;;;2.35;70.16;97168.72;29394;227;64009;-56
2022/02/06 04:01:29;;;;;;;0.60;0.60;;;;;;;2.32;70.47;97159.28;29373;226;63009;-58
2022/02/06 04:02:00;;;;;;;0.73;0.73;;;;;;;2.40;70.43;97160.81;29373;370;63004;-58
2022/02/06 04:02:34;;;;;;;0.60;0.60;;;;;;;2.43;70.19;97164.84;29373;218;63008;-60
2022/02/06 04:03:06;;;;;;;0.60;0.60;;;;;;;2.45;70.13;97168.91;29373;337;63017;-57
2022/02/06 04:03:38;;;;;;;0.60;0.60;;;;;;;2.39;69.85;97155.69;29373;281;63009;-56
2022/02/06 04:04:09;;;;;;;0.60;0.60;;;;;;;2.46;69.98;97162.50;29373;389;63008;-61
2022/02/06 04:04:42;;;;;;;0.60;0.60;;;;;;;2.51;69.74;97162.62;29373;247;63009;-58
2022/02/06 04:05:14;;;;;;;0.60;0.60;;;;;;;2.52;69.46;97158.91;29371;317;64009;-59
2022/02/06 04:05:48;;;;;;;0.60;0.60;;;;;;;2.46;69.86;97162.50;29373;293;63026;-58
2022/02/06 04:06:19;;;;;;;0.60;0.60;;;;;;;2.41;70.30;97146.38;29373;229;63005;-56
2022/02/06 04:06:51;;;;;;;0.60;0.60;;;;;;;2.39;70.13;97164.53;29373;236;63009;-59
2022/02/06 04:07:22;;;;;;;0.60;0.60;;;;;;;2.36;70.67;97154.28;29371;313;64009;-61